Time;durP1;ratioP1;P1;durP2;ratioP2;P2;SDS_P1;SDS_P2;PMS_P1;PMS_P2;Temp;Humidity;BMP_temperature;BMP_pressure;BME280_temperature;BME280_humidity;BME280_pressure;Samples;Min_cycle;Max_cycle;Signal;HPM_P1;HPM_P2
2021/08/27 00:01:34;;;;;;;3.83;2.17;;;;;;;;;;5053769;28;20251;-78
2021/08/27 00:04:00;;;;;;;3.10;2.10;;;;;;;;;;5053647;28;20250;-77
2021/08/27 00:06:27;;;;;;;6.13;2.40;;;;;;;;;;5053738;28;20251;-77
2021/08/27 00:08:54;;;;;;;2.43;2.23;;;;;;;;;;5035401;28;20549;-78
2021/08/27 00:11:20;;;;;;;3.63;2.13;;;;;;;;;;5054140;28;20200;-77
2021/08/27 00:13:48;;;;;;;4.00;2.20;;;;;;;;;;5053957;28;20207;-77
2021/08/27 00:16:15;;;;;;;4.23;2.20;;;;;;;;;;5053865;28;20253;-78
2021/08/27 00:18:42;;;;;;;3.37;2.30;;;;;;;;;;5053628;28;20246;-78
2021/08/27 00:21:08;;;;;;;2.53;2.03;;;;;;;;;;5053310;28;20215;-78
2021/08/27 00:23:35;;;;;;;1.90;1.80;;;;;;;;;;5053773;28;20180;-78
2021/08/27 00:26:02;;;;;;;2.27;2.00;;;;;;;;;;5053269;28;20246;-78
2021/08/27 00:28:29;;;;;;;5.63;2.00;;;;;;;;;;5053429;28;20208;-79
2021/08/27 00:30:57;;;;;;;2.30;2.07;;;;;;;;;;5053536;28;20206;-77
2021/08/27 00:33:24;;;;;;;2.90;2.30;;;;;;;;;;5052986;28;20254;-77
2021/08/27 00:35:50;;;;;;;3.43;2.00;;;;;;;;;;5035517;28;20192;-77
2021/08/27 00:38:17;;;;;;;4.37;2.20;;;;;;;;;;5035230;28;20204;-77
2021/08/27 00:40:44;;;;;;;3.17;2.57;;;;;;;;;;5052866;28;20251;-77
2021/08/27 00:43:12;;;;;;;1.83;1.73;;;;;;;;;;5053095;28;20239;-78
2021/08/27 00:45:38;;;;;;;4.17;2.10;;;;;;;;;;5052699;28;20614;-78
2021/08/27 00:48:07;;;;;;;3.37;2.40;;;;;;;;;;5052606;28;20279;-77
2021/08/27 00:50:33;;;;;;;2.60;1.90;;;;;;;;;;5053040;28;20263;-78
2021/08/27 00:53:00;;;;;;;3.17;2.20;;;;;;;;;;5052694;28;20214;-77
2021/08/27 00:55:27;;;;;;;3.17;2.10;;;;;;;;;;5053416;28;20533;-78
2021/08/27 00:57:53;;;;;;;4.43;2.00;;;;;;;;;;5034885;28;20260;-78
2021/08/27 01:00:21;;;;;;;1.90;1.70;;;;;;;;;;5053171;28;20210;-77
2021/08/27 01:02:48;;;;;;;2.27;2.07;;;;;;;;;;5052539;28;20249;-78
2021/08/27 01:05:16;;;;;;;2.60;1.77;;;;;;;;;;5052682;28;20250;-78
2021/08/27 01:07:46;;;;;;;2.73;2.20;;;;;;;;;;5052923;28;20238;-78
2021/08/27 01:10:17;;;;;;;2.97;2.07;;;;;;;;;;5034252;28;20203;-78
2021/08/27 01:12:46;;;;;;;2.07;1.80;;;;;;;;;;5052653;28;20207;-78
2021/08/27 01:15:15;;;;;;;5.00;2.20;;;;;;;;;;5052510;28;20599;-78
2021/08/27 01:17:43;;;;;;;2.27;2.07;;;;;;;;;;5052316;28;20690;-78
2021/08/27 01:20:34;;;;;;;2.70;1.90;;;;;;;;;;5034746;28;20261;-79
2021/08/27 01:23:16;;;;;;;3.07;2.43;;;;;;;;;;5052573;28;20250;-77
2021/08/27 01:25:45;;;;;;;2.87;2.23;;;;;;;;;;5052123;28;20206;-78
2021/08/27 01:28:13;;;;;;;5.23;2.30;;;;;;;;;;5031475;28;20259;-77
2021/08/27 01:30:42;;;;;;;2.27;2.10;;;;;;;;;;5032489;28;20219;-77
2021/08/27 01:33:13;;;;;;;2.87;2.10;;;;;;;;;;5032291;28;20239;-77
2021/08/27 01:35:45;;;;;;;2.20;1.90;;;;;;;;;;5032688;28;20250;-78
2021/08/27 01:38:14;;;;;;;3.63;2.30;;;;;;;;;;5032366;28;20311;-77
2021/08/27 01:40:43;;;;;;;2.43;2.23;;;;;;;;;;5032411;28;20216;-78
2021/08/27 01:43:12;;;;;;;2.67;2.33;;;;;;;;;;5032212;28;20250;-77
2021/08/27 01:45:39;;;;;;;3.60;2.40;;;;;;;;;;5014580;28;20668;-77
2021/08/27 01:48:07;;;;;;;4.50;2.23;;;;;;;;;;5030695;28;20244;-77
2021/08/27 01:50:34;;;;;;;4.33;2.30;;;;;;;;;;5013933;28;20231;-78
2021/08/27 01:53:02;;;;;;;2.70;2.50;;;;;;;;;;5030034;28;20254;-76
2021/08/27 01:55:29;;;;;;;3.40;2.80;;;;;;;;;;5031349;28;20699;-79
2021/08/27 01:57:57;;;;;;;3.47;2.30;;;;;;;;;;5032520;28;20192;-79
2021/08/27 02:00:26;;;;;;;6.07;3.10;;;;;;;;;;5014559;28;20228;-80
2021/08/27 02:02:54;;;;;;;6.27;2.77;;;;;;;;;;5031598;28;20711;-77
2021/08/27 02:05:21;;;;;;;3.93;2.70;;;;;;;;;;5031311;28;20216;-79
2021/08/27 02:07:48;;;;;;;3.20;2.73;;;;;;;;;;5014159;28;20266;-80
2021/08/27 02:10:17;;;;;;;3.17;2.67;;;;;;;;;;5032110;28;20212;-80
2021/08/27 02:12:44;;;;;;;2.80;2.53;;;;;;;;;;5031587;28;20208;-79
2021/08/27 02:15:12;;;;;;;3.93;2.80;;;;;;;;;;5014690;28;20710;-79
2021/08/27 02:17:38;;;;;;;3.30;2.43;;;;;;;;;;5018195;28;20192;-79
2021/08/27 02:20:07;;;;;;;2.77;2.57;;;;;;;;;;5018215;28;20663;-79
2021/08/27 02:22:38;;;;;;;3.40;2.53;;;;;;;;;;5017599;28;20204;-80
2021/08/27 02:25:07;;;;;;;3.30;2.77;;;;;;;;;;5018079;28;20204;-79
2021/08/27 02:27:36;;;;;;;7.53;3.30;;;;;;;;;;5049713;28;20258;-79
2021/08/27 02:30:06;;;;;;;7.57;3.13;;;;;;;;;;5037947;28;20183;-79
2021/08/27 02:32:33;;;;;;;5.00;2.80;;;;;;;;;;5037986;28;20241;-80
2021/08/27 02:35:02;;;;;;;4.07;3.13;;;;;;;;;;5055716;28;20648;-80
2021/08/27 02:37:31;;;;;;;3.10;2.83;;;;;;;;;;5037127;28;20199;-79
2021/08/27 02:39:58;;;;;;;6.73;3.20;;;;;;;;;;5037496;28;20752;-80
2021/08/27 02:42:27;;;;;;;4.83;3.13;;;;;;;;;;5055131;28;20226;-79
2021/08/27 02:44:56;;;;;;;4.07;3.67;;;;;;;;;;5055496;28;20203;-79
2021/08/27 02:47:23;;;;;;;4.33;3.50;;;;;;;;;;5037231;28;20215;-79
2021/08/27 02:49:50;;;;;;;4.27;3.10;;;;;;;;;;5055589;28;20719;-82
2021/08/27 02:52:20;;;;;;;6.73;3.20;;;;;;;;;;5037667;28;20188;-80
2021/08/27 02:54:51;;;;;;;6.33;3.60;;;;;;;;;;5037263;28;20682;-80
2021/08/27 02:57:19;;;;;;;5.93;3.10;;;;;;;;;;5037445;28;20199;-80
2021/08/27 02:59:47;;;;;;;3.47;2.93;;;;;;;;;;5054628;28;20694;-80
2021/08/27 03:02:16;;;;;;;4.50;3.20;;;;;;;;;;5037155;28;20216;-80
2021/08/27 03:04:49;;;;;;;4.63;3.20;;;;;;;;;;5037072;28;20245;-80
2021/08/27 03:07:17;;;;;;;3.47;3.00;;;;;;;;;;5036693;28;20208;-79
2021/08/27 03:09:51;;;;;;;4.63;3.67;;;;;;;;;;5037085;28;20191;-80
2021/08/27 03:12:20;;;;;;;6.63;3.70;;;;;;;;;;5055026;28;20226;-80
2021/08/27 03:14:49;;;;;;;7.37;3.53;;;;;;;;;;5054998;28;20199;-79
2021/08/27 03:17:19;;;;;;;5.23;3.70;;;;;;;;;;5054618;28;20690;-80
2021/08/27 03:19:50;;;;;;;6.47;4.13;;;;;;;;;;5054436;28;20215;-80
2021/08/27 03:22:19;;;;;;;4.90;3.87;;;;;;;;;;5036978;28;20195;-80
2021/08/27 03:24:51;;;;;;;8.13;3.90;;;;;;;;;;5054651;28;20596;-80
2021/08/27 03:27:20;;;;;;;6.73;4.10;;;;;;;;;;5033018;28;20236;-79
2021/08/27 03:29:51;;;;;;;5.43;3.80;;;;;;;;;;5034713;28;20279;-80
2021/08/27 03:32:19;;;;;;;6.53;3.60;;;;;;;;;;5034441;28;20247;-80
2021/08/27 03:34:46;;;;;;;6.60;3.97;;;;;;;;;;5034682;28;20660;-80
2021/08/27 03:37:13;;;;;;;6.13;3.70;;;;;;;;;;5034726;28;20185;-80
2021/08/27 03:39:41;;;;;;;6.23;3.93;;;;;;;;;;5034720;28;20315;-80
2021/08/27 03:42:08;;;;;;;7.53;3.50;;;;;;;;;;5034645;28;20216;-79
2021/08/27 03:44:35;;;;;;;5.97;3.43;;;;;;;;;;5034719;28;20410;-80
2021/08/27 03:47:03;;;;;;;3.70;3.20;;;;;;;;;;5033168;28;20497;-80
2021/08/27 03:49:34;;;;;;;8.97;3.03;;;;;;;;;;5033525;28;20298;-79
2021/08/27 03:52:01;;;;;;;4.70;2.93;;;;;;;;;;5034424;28;20246;-80
2021/08/27 03:54:29;;;;;;;4.13;3.07;;;;;;;;;;5033087;28;20196;-79
2021/08/27 03:56:56;;;;;;;4.13;3.03;;;;;;;;;;5034551;28;20564;-80
2021/08/27 03:59:23;;;;;;;4.77;3.00;;;;;;;;;;5034726;28;20181;-80
2021/08/27 04:01:50;;;;;;;7.17;3.50;;;;;;;;;;5034423;28;20663;-81
2021/08/27 04:04:23;;;;;;;5.20;3.20;;;;;;;;;;5032625;28;20227;-80
2021/08/27 04:06:55;;;;;;;3.23;2.93;;;;;;;;;;5032397;28;20254;-79
2021/08/27 04:09:22;;;;;;;5.33;3.20;;;;;;;;;;5033878;28;20256;-80
2021/08/27 04:11:49;;;;;;;5.23;3.27;;;;;;;;;;5032634;28;20605;-80
2021/08/27 04:14:17;;;;;;;5.23;3.27;;;;;;;;;;5032845;28;20195;-79
2021/08/27 04:16:44;;;;;;;6.07;3.80;;;;;;;;;;5033914;28;20188;-80
2021/08/27 04:19:13;;;;;;;9.57;3.30;;;;;;;;;;5033592;28;20231;-80
2021/08/27 04:21:40;;;;;;;3.90;3.10;;;;;;;;;;5032265;28;20196;-80
2021/08/27 04:24:09;;;;;;;3.23;3.03;;;;;;;;;;5034025;28;20176;-79
2021/08/27 04:26:36;;;;;;;3.37;3.13;;;;;;;;;;5032349;28;20261;-80
2021/08/27 04:29:04;;;;;;;3.60;2.90;;;;;;;;;;5032189;28;20204;-79
2021/08/27 04:31:31;;;;;;;3.80;3.00;;;;;;;;;;5033833;28;20513;-80
2021/08/27 04:33:59;;;;;;;4.83;3.23;;;;;;;;;;5032296;28;20235;-79
2021/08/27 04:36:26;;;;;;;4.60;3.40;;;;;;;;;;5032092;28;20246;-80
2021/08/27 04:38:53;;;;;;;5.53;3.80;;;;;;;;;;5031437;28;20220;-80
2021/08/27 04:41:21;;;;;;;3.57;3.27;;;;;;;;;;5033334;28;20231;-79
2021/08/27 04:43:50;;;;;;;3.40;3.10;;;;;;;;;;5033669;28;20184;-81
2021/08/27 04:46:17;;;;;;;4.40;3.00;;;;;;;;;;5032081;28;20548;-80
2021/08/27 04:48:44;;;;;;;4.37;3.10;;;;;;;;;;5033477;28;20250;-80
2021/08/27 04:51:11;;;;;;;3.90;3.20;;;;;;;;;;5031780;28;20235;-79
2021/08/27 04:53:37;;;;;;;4.60;3.40;;;;;;;;;;5031674;28;20250;-79
2021/08/27 04:56:05;;;;;;;4.67;3.30;;;;;;;;;;5031866;28;20606;-80
2021/08/27 04:58:33;;;;;;;7.40;3.67;;;;;;;;;;5031736;28;20199;-79
2021/08/27 05:01:00;;;;;;;6.43;3.63;;;;;;;;;;5033225;28;20250;-80
2021/08/27 05:03:27;;;;;;;6.23;3.53;;;;;;;;;;5031840;28;20227;-80
2021/08/27 05:05:54;;;;;;;7.23;3.90;;;;;;;;;;5031993;28;20644;-80
2021/08/27 05:08:20;;;;;;;5.33;3.70;;;;;;;;;;5032544;28;20263;-79
2021/08/27 05:10:47;;;;;;;3.90;3.50;;;;;;;;;;5031580;28;20196;-79
2021/08/27 05:13:14;;;;;;;3.93;3.43;;;;;;;;;;5031690;28;20239;-81
2021/08/27 05:15:42;;;;;;;4.33;3.93;;;;;;;;;;5033145;28;20606;-80
2021/08/27 05:18:09;;;;;;;4.70;3.70;;;;;;;;;;5031549;28;20241;-81
2021/08/27 05:20:36;;;;;;;5.07;3.90;;;;;;;;;;5031552;28;20184;-82
2021/08/27 05:23:03;;;;;;;6.23;3.93;;;;;;;;;;5030698;28;20270;-81
2021/08/27 05:25:30;;;;;;;4.33;3.93;;;;;;;;;;5032556;28;20227;-80
2021/08/27 05:27:57;;;;;;;7.03;4.17;;;;;;;;;;5050193;28;20238;-80
2021/08/27 05:30:24;;;;;;;8.77;4.23;;;;;;;;;;5034564;28;20257;-80
2021/08/27 05:32:55;;;;;;;6.77;4.43;;;;;;;;;;5052567;28;20659;-81
2021/08/27 05:35:22;;;;;;;8.47;4.00;;;;;;;;;;5052312;28;20222;-79
2021/08/27 05:37:48;;;;;;;4.77;3.93;;;;;;;;;;5034110;28;20268;-79
2021/08/27 05:40:15;;;;;;;5.17;3.93;;;;;;;;;;5034261;28;20180;-79
2021/08/27 05:42:43;;;;;;;6.73;3.67;;;;;;;;;;5034262;28;20199;-81
2021/08/27 05:45:11;;;;;;;8.90;3.80;;;;;;;;;;5052018;28;20616;-80
2021/08/27 05:47:41;;;;;;;6.80;3.80;;;;;;;;;;5034537;28;20540;-78
2021/08/27 05:50:12;;;;;;;10.23;3.50;;;;;;;;;;5052207;28;20246;-80
2021/08/27 05:52:39;;;;;;;5.77;3.30;;;;;;;;;;5034377;28;20199;-80
2021/08/27 05:55:07;;;;;;;5.53;3.13;;;;;;;;;;5032782;28;20752;-81
2021/08/27 05:57:34;;;;;;;8.00;3.17;;;;;;;;;;5034769;28;20713;-80
2021/08/27 06:00:02;;;;;;;4.40;3.10;;;;;;;;;;5052143;28;20176;-80
2021/08/27 06:02:29;;;;;;;3.80;2.83;;;;;;;;;;5034310;28;20233;-81
2021/08/27 06:04:55;;;;;;;4.87;2.93;;;;;;;;;;5051940;28;20207;-82
2021/08/27 06:07:23;;;;;;;4.50;3.23;;;;;;;;;;5052234;28;20719;-80
2021/08/27 06:09:50;;;;;;;6.20;3.33;;;;;;;;;;5051696;28;20330;-81
2021/08/27 06:12:17;;;;;;;5.27;3.00;;;;;;;;;;5051662;28;20239;-81
2021/08/27 06:14:46;;;;;;;4.50;3.07;;;;;;;;;;5032712;28;20203;-80
2021/08/27 06:17:12;;;;;;;3.57;3.03;;;;;;;;;;5052203;28;20183;-80
2021/08/27 06:19:40;;;;;;;5.50;3.17;;;;;;;;;;5034525;28;20219;-81
2021/08/27 06:22:07;;;;;;;5.07;3.10;;;;;;;;;;5034333;28;20207;-81
2021/08/27 06:24:35;;;;;;;6.47;3.10;;;;;;;;;;5034375;28;20237;-81
2021/08/27 06:27:03;;;;;;;4.87;3.37;;;;;;;;;;5052257;28;20227;-81
2021/08/27 06:29:33;;;;;;;12.47;3.10;;;;;;;;;;5034211;28;20640;-80
2021/08/27 06:31:59;;;;;;;9.60;3.07;;;;;;;;;;5033924;28;20207;-81
2021/08/27 06:34:26;;;;;;;5.70;2.97;;;;;;;;;;5051814;28;20211;-81
2021/08/27 06:36:53;;;;;;;6.37;3.00;;;;;;;;;;5052394;28;20212;-80
2021/08/27 06:39:20;;;;;;;7.73;3.13;;;;;;;;;;5051749;28;20245;-81
2021/08/27 06:41:50;;;;;;;6.63;3.20;;;;;;;;;;5034142;28;20239;-82
2021/08/27 06:44:17;;;;;;;4.80;3.17;;;;;;;;;;5034055;28;20262;-80
2021/08/27 06:46:44;;;;;;;5.67;3.17;;;;;;;;;;5034327;28;20195;-81
2021/08/27 06:49:11;;;;;;;8.47;2.93;;;;;;;;;;5052095;28;20226;-80
2021/08/27 06:51:39;;;;;;;6.93;3.27;;;;;;;;;;5052186;28;20735;-80
2021/08/27 06:54:06;;;;;;;3.50;2.70;;;;;;;;;;5051915;28;20172;-80
2021/08/27 06:56:34;;;;;;;4.93;2.63;;;;;;;;;;5033823;28;20240;-82
2021/08/27 06:59:03;;;;;;;7.17;2.90;;;;;;;;;;5051814;28;20586;-82
2021/08/27 07:01:30;;;;;;;5.87;2.50;;;;;;;;;;5034901;28;20652;-81
2021/08/27 07:03:56;;;;;;;7.13;2.70;;;;;;;;;;5037284;28;20192;-81
2021/08/27 07:06:23;;;;;;;7.90;2.57;;;;;;;;;;5037754;28;20191;-81
2021/08/27 07:08:50;;;;;;;5.47;2.47;;;;;;;;;;5037640;28;20246;-81
2021/08/27 07:11:17;;;;;;;6.63;3.20;;;;;;;;;;5054480;28;20219;-81
2021/08/27 07:13:44;;;;;;;3.50;2.63;;;;;;;;;;5037543;28;20198;-81
2021/08/27 07:16:12;;;;;;;6.20;3.00;;;;;;;;;;5037394;28;20238;-81
2021/08/27 07:18:40;;;;;;;6.87;2.80;;;;;;;;;;5037372;28;20195;-80
2021/08/27 07:21:08;;;;;;;4.40;2.63;;;;;;;;;;5054651;28;20238;-80
2021/08/27 07:23:37;;;;;;;5.87;2.97;;;;;;;;;;5036540;28;20195;-81
2021/08/27 07:26:04;;;;;;;6.07;2.20;;;;;;;;;;5054504;28;20207;-81
2021/08/27 07:28:31;;;;;;;5.67;2.47;;;;;;;;;;5055060;28;20176;-81
2021/08/27 07:30:57;;;;;;;5.23;2.70;;;;;;;;;;5036858;28;20219;-81
2021/08/27 07:33:25;;;;;;;5.57;2.90;;;;;;;;;;5054282;28;20250;-81
2021/08/27 07:35:52;;;;;;;5.07;2.30;;;;;;;;;;5037074;28;20652;-81
2021/08/27 07:38:19;;;;;;;5.40;2.40;;;;;;;;;;5054736;28;20238;-81
2021/08/27 07:40:46;;;;;;;4.50;2.40;;;;;;;;;;5036762;28;20209;-83
2021/08/27 07:43:13;;;;;;;5.70;2.50;;;;;;;;;;5036119;28;20203;-81
2021/08/27 07:45:40;;;;;;;7.00;2.30;;;;;;;;;;5054250;28;20223;-82
2021/08/27 07:48:07;;;;;;;2.43;2.17;;;;;;;;;;5036617;28;20226;-82
2021/08/27 07:50:35;;;;;;;6.27;2.53;;;;;;;;;;5036123;28;20255;-80
2021/08/27 07:53:03;;;;;;;5.07;2.37;;;;;;;;;;5054049;28;20231;-81
2021/08/27 07:55:30;;;;;;;3.90;2.60;;;;;;;;;;5036360;28;20265;-80
2021/08/27 07:57:57;;;;;;;4.70;2.53;;;;;;;;;;5036762;28;20200;-81
2021/08/27 08:00:23;;;;;;;4.07;2.33;;;;;;;;;;5054419;28;20238;-82
2021/08/27 08:02:50;;;;;;;4.43;2.67;;;;;;;;;;5036653;28;20199;-81
2021/08/27 08:05:19;;;;;;;7.07;2.57;;;;;;;;;;5054621;28;20239;-81
2021/08/27 08:07:48;;;;;;;4.67;2.60;;;;;;;;;;5054316;28;20263;-80
2021/08/27 08:10:15;;;;;;;4.07;2.30;;;;;;;;;;5035321;28;20249;-81
2021/08/27 08:12:42;;;;;;;4.60;2.20;;;;;;;;;;5053323;28;20242;-81
2021/08/27 08:15:11;;;;;;;7.93;2.70;;;;;;;;;;5036219;28;20567;-82
2021/08/27 08:17:38;;;;;;;3.50;2.43;;;;;;;;;;5053735;28;20239;-81
2021/08/27 08:20:06;;;;;;;8.63;2.57;;;;;;;;;;5036425;28;20219;-81
2021/08/27 08:22:32;;;;;;;7.63;2.67;;;;;;;;;;5053903;28;20250;-81
2021/08/27 08:25:00;;;;;;;7.07;2.63;;;;;;;;;;5036162;28;20241;-81
2021/08/27 08:27:33;;;;;;;7.23;2.60;;;;;;;;;;5032800;28;20228;-81
2021/08/27 08:30:00;;;;;;;7.27;2.60;;;;;;;;;;5032021;28;20244;-83
2021/08/27 08:32:26;;;;;;;5.93;2.80;;;;;;;;;;5033420;28;20208;-83
2021/08/27 08:34:53;;;;;;;5.43;2.90;;;;;;;;;;5033581;28;20254;-82
2021/08/27 08:37:22;;;;;;;7.53;2.80;;;;;;;;;;5034493;28;20276;-82
2021/08/27 08:39:49;;;;;;;3.17;2.87;;;;;;;;;;5032849;28;20201;-82
2021/08/27 08:42:18;;;;;;;4.90;2.83;;;;;;;;;;5033035;28;20564;-82
2021/08/27 08:44:45;;;;;;;6.70;2.80;;;;;;;;;;5034061;28;20246;-81
2021/08/27 08:47:11;;;;;;;8.17;2.80;;;;;;;;;;5033307;28;20231;-81
2021/08/27 08:49:38;;;;;;;3.83;2.50;;;;;;;;;;5033583;28;20696;-81
2021/08/27 08:52:06;;;;;;;6.03;2.90;;;;;;;;;;5034068;28;20247;-81
2021/08/27 08:54:33;;;;;;;4.57;3.00;;;;;;;;;;5033822;28;20242;-82
2021/08/27 08:57:01;;;;;;;3.37;2.87;;;;;;;;;;5034290;28;20644;-82
2021/08/27 08:59:29;;;;;;;4.23;2.60;;;;;;;;;;5033832;28;20204;-82
2021/08/27 09:01:56;;;;;;;4.93;2.83;;;;;;;;;;5016076;28;20224;-82
2021/08/27 09:04:24;;;;;;;8.20;2.97;;;;;;;;;;5032841;28;20522;-81
2021/08/27 09:06:51;;;;;;;5.97;3.03;;;;;;;;;;5039562;28;20233;-82
2021/08/27 09:09:29;;;;;;;4.73;2.90;;;;;;;;;;5053656;28;20239;-82
2021/08/27 09:11:56;;;;;;;4.03;3.10;;;;;;;;;;5053442;28;20245;-83
2021/08/27 09:14:29;;;;;;;8.50;3.30;;;;;;;;;;5053376;28;20199;-82
2021/08/27 09:17:02;;;;;;;3.43;2.53;;;;;;;;;;5052303;28;20195;-81
2021/08/27 09:19:48;;;;;;;6.80;3.07;;;;;;;;;;5053081;28;20281;-80
2021/08/27 09:22:15;;;;;;;5.90;2.80;;;;;;;;;;5053429;28;20207;-82
2021/08/27 09:24:43;;;;;;;3.17;2.90;;;;;;;;;;5050869;28;20204;-81
2021/08/27 09:27:10;;;;;;;6.37;3.07;;;;;;;;;;5061633;28;20631;-79
2021/08/27 09:29:39;;;;;;;3.47;2.90;;;;;;;;;;5054398;28;20670;-80
2021/08/27 09:32:21;;;;;;;4.43;2.90;;;;;;;;;;5054409;28;20250;-80
2021/08/27 09:34:48;;;;;;;3.40;3.10;;;;;;;;;;5072652;28;20697;-82
2021/08/27 09:37:15;;;;;;;8.80;3.20;;;;;;;;;;5071336;28;20244;-81
2021/08/27 09:39:42;;;;;;;3.80;3.40;;;;;;;;;;5053866;28;20233;-81
2021/08/27 09:42:08;;;;;;;4.73;3.20;;;;;;;;;;5071182;28;20233;-82
2021/08/27 09:44:35;;;;;;;4.43;3.23;;;;;;;;;;5054147;28;20199;-82
2021/08/27 09:47:09;;;;;;;3.30;3.00;;;;;;;;;;5053417;28;20227;-82
2021/08/27 09:49:37;;;;;;;3.50;3.20;;;;;;;;;;5053808;28;20206;-81
2021/08/27 09:52:04;;;;;;;3.60;3.30;;;;;;;;;;5053777;28;20264;-82
2021/08/27 09:54:33;;;;;;;3.77;3.37;;;;;;;;;;5054464;28;20261;-81
2021/08/27 09:57:03;;;;;;;4.83;3.73;;;;;;;;;;5054619;28;20195;-81
2021/08/27 09:59:34;;;;;;;4.87;3.37;;;;;;;;;;5054542;28;20364;-80
2021/08/27 10:02:01;;;;;;;5.57;3.47;;;;;;;;;;5054730;28;20206;-81
2021/08/27 10:04:30;;;;;;;6.73;3.77;;;;;;;;;;5054772;28;20187;-80
2021/08/27 10:06:58;;;;;;;6.80;3.87;;;;;;;;;;5054412;28;20198;-80
2021/08/27 10:09:42;;;;;;;5.43;3.67;;;;;;;;;;5054196;28;20194;-80
2021/08/27 10:12:09;;;;;;;4.37;3.70;;;;;;;;;;5053885;28;20237;-80
2021/08/27 10:14:37;;;;;;;6.00;3.87;;;;;;;;;;5053410;28;20202;-79
2021/08/27 10:17:04;;;;;;;7.23;4.30;;;;;;;;;;5072061;28;20198;-81
2021/08/27 10:19:33;;;;;;;7.73;4.37;;;;;;;;;;5072402;28;20685;-80
2021/08/27 10:22:00;;;;;;;6.17;4.13;;;;;;;;;;5072414;28;20228;-81
2021/08/27 10:24:27;;;;;;;11.33;4.83;;;;;;;;;;5071853;28;20243;-80
2021/08/27 10:26:53;;;;;;;5.07;4.33;;;;;;;;;;5050874;28;20231;-81
2021/08/27 10:29:20;;;;;;;6.60;4.03;;;;;;;;;;5050846;28;20188;-80
2021/08/27 10:31:48;;;;;;;9.50;4.60;;;;;;;;;;5049336;28;20288;-81
2021/08/27 10:34:15;;;;;;;5.60;4.10;;;;;;;;;;5050323;28;20206;-81
2021/08/27 10:36:55;;;;;;;4.50;4.10;;;;;;;;;;5053580;28;20207;-81
2021/08/27 10:39:41;;;;;;;6.40;4.40;;;;;;;;;;5055882;28;20234;-82
2021/08/27 10:42:08;;;;;;;6.33;3.80;;;;;;;;;;5055775;28;20707;-81
2021/08/27 10:44:45;;;;;;;4.77;3.73;;;;;;;;;;5056020;28;20179;-82
2021/08/27 10:47:14;;;;;;;3.67;3.37;;;;;;;;;;5056016;28;20250;-79
2021/08/27 10:49:55;;;;;;;5.73;4.17;;;;;;;;;;5055511;28;20241;-81
2021/08/27 10:52:27;;;;;;;5.20;3.70;;;;;;;;;;5054676;28;20242;-81
2021/08/27 10:55:15;;;;;;;5.23;3.73;;;;;;;;;;5055251;28;20253;-78
2021/08/27 10:57:44;;;;;;;3.70;3.30;;;;;;;;;;5055143;28;20219;-81
2021/08/27 11:00:12;;;;;;;3.97;3.63;;;;;;;;;;5054163;28;20211;-78
2021/08/27 11:02:51;;;;;;;4.13;3.73;;;;;;;;;;5055297;28;20195;-80
2021/08/27 11:05:38;;;;;;;8.60;3.60;;;;;;;;;;5053377;28;20667;-80
2021/08/27 11:08:09;;;;;;;4.03;3.60;;;;;;;;;;5054157;28;20299;-79
2021/08/27 11:10:39;;;;;;;6.43;3.73;;;;;;;;;;5053898;28;20211;-81
2021/08/27 11:13:13;;;;;;;5.37;3.67;;;;;;;;;;5055070;28;20249;-78
2021/08/27 11:15:41;;;;;;;4.37;3.97;;;;;;;;;;5054305;28;20239;-79
2021/08/27 11:18:12;;;;;;;4.33;3.57;;;;;;;;;;5053518;28;20630;-80
2021/08/27 11:20:39;;;;;;;4.53;4.17;;;;;;;;;;5053421;28;20241;-79
2021/08/27 11:23:06;;;;;;;4.73;4.30;;;;;;;;;;5053909;28;20667;-78
2021/08/27 11:25:35;;;;;;;8.10;5.70;;;;;;;;;;5054809;28;20176;-79
2021/08/27 11:28:25;;;;;;;4.63;4.20;;;;;;;;;;5070249;28;20250;-81
2021/08/27 11:31:01;;;;;;;4.83;4.20;;;;;;;;;;5074410;28;20751;-81
2021/08/27 11:34:01;;;;;;;10.47;4.60;;;;;;;;;;5055609;28;20669;-80
2021/08/27 11:36:32;;;;;;;7.00;4.30;;;;;;;;;;5057050;28;20199;-80
2021/08/27 11:39:00;;;;;;;5.10;4.10;;;;;;;;;;5074308;28;20218;-82
2021/08/27 11:41:28;;;;;;;4.87;4.40;;;;;;;;;;5056613;28;20587;-81
2021/08/27 11:44:03;;;;;;;4.10;3.70;;;;;;;;;;5056077;28;20724;-82
2021/08/27 11:46:31;;;;;;;4.43;3.90;;;;;;;;;;5057333;28;20202;-82
2021/08/27 11:49:04;;;;;;;4.50;4.13;;;;;;;;;;5075826;28;20230;-81
2021/08/27 11:51:35;;;;;;;5.37;3.77;;;;;;;;;;5073290;28;20258;-81
2021/08/27 11:54:15;;;;;;;3.73;3.47;;;;;;;;;;5073798;28;20238;-82
2021/08/27 11:56:48;;;;;;;5.73;4.07;;;;;;;;;;5058215;28;20198;-80
2021/08/27 11:59:24;;;;;;;3.90;3.07;;;;;;;;;;5056084;28;20283;-78
2021/08/27 12:01:51;;;;;;;5.00;3.53;;;;;;;;;;5056337;28;20731;-79
2021/08/27 12:04:23;;;;;;;5.23;3.40;;;;;;;;;;5056403;28;20224;-79
2021/08/27 12:07:03;;;;;;;4.30;3.50;;;;;;;;;;5074324;28;20242;-79
2021/08/27 12:09:30;;;;;;;4.27;3.70;;;;;;;;;;5055933;28;20203;-79
2021/08/27 12:11:58;;;;;;;3.83;3.53;;;;;;;;;;5073696;28;20260;-80
2021/08/27 12:14:46;;;;;;;6.63;3.70;;;;;;;;;;5073840;28;20229;-80
2021/08/27 12:17:16;;;;;;;3.47;3.17;;;;;;;;;;5055807;28;20187;-79
2021/08/27 12:19:43;;;;;;;4.70;3.40;;;;;;;;;;5073859;28;20642;-79
2021/08/27 12:22:12;;;;;;;3.50;3.27;;;;;;;;;;5073921;28;20222;-79
2021/08/27 12:24:39;;;;;;;3.47;3.20;;;;;;;;;;5055345;28;20229;-79
2021/08/27 12:27:07;;;;;;;3.50;3.20;;;;;;;;;;5073575;28;20249;-79
2021/08/27 12:29:34;;;;;;;3.23;2.93;;;;;;;;;;5073672;28;20202;-78
2021/08/27 12:32:01;;;;;;;2.90;2.70;;;;;;;;;;5073740;28;20671;-79
2021/08/27 12:34:27;;;;;;;4.73;2.97;;;;;;;;;;5073549;28;20231;-79
2021/08/27 12:36:54;;;;;;;5.03;3.03;;;;;;;;;;5055044;28;20737;-79
2021/08/27 12:39:21;;;;;;;2.67;2.47;;;;;;;;;;5073018;28;20744;-80
2021/08/27 12:41:47;;;;;;;3.90;2.25;;;;;;;;;;5073527;28;20214;-80
2021/08/27 12:44:16;;;;;;;2.95;2.08;;;;;;;;;;5073001;28;20257;-79
2021/08/27 12:46:47;;;;;;;2.22;2.08;;;;;;;;;;5073375;28;20214;-79
2021/08/27 12:49:14;;;;;;;2.28;2.10;;;;;;;;;;5072440;28;20234;-79
2021/08/27 12:51:41;;;;;;;3.08;2.10;;;;;;;;;;5072828;28;20265;-80
2021/08/27 12:54:08;;;;;;;2.00;1.90;;;;;;;;;;5055168;28;20571;-80
2021/08/27 12:56:36;;;;;;;1.40;1.40;;;;;;;;;;5054976;28;20203;-79
2021/08/27 12:59:14;;;;;;;2.13;1.98;;;;;;;;;;5053992;28;20202;-79
2021/08/27 13:01:42;;;;;;;1.90;1.77;;;;;;;;;;5055150;28;20731;-79
2021/08/27 13:04:08;;;;;;;2.20;2.00;;;;;;;;;;5072708;28;20222;-79
2021/08/27 13:06:37;;;;;;;2.00;1.90;;;;;;;;;;5054995;28;20206;-79
2021/08/27 13:09:05;;;;;;;2.50;1.88;;;;;;;;;;5055060;28;20224;-80
2021/08/27 13:11:45;;;;;;;2.08;1.90;;;;;;;;;;5055008;28;20230;-79
2021/08/27 13:14:16;;;;;;;3.42;1.90;;;;;;;;;;5072384;28;20316;-79
2021/08/27 13:16:51;;;;;;;3.78;1.92;;;;;;;;;;5054678;28;20187;-79
2021/08/27 13:19:18;;;;;;;2.20;2.00;;;;;;;;;;5054613;28;20187;-78
2021/08/27 13:21:45;;;;;;;2.97;2.10;;;;;;;;;;5054824;28;20187;-78
2021/08/27 13:24:13;;;;;;;2.00;1.90;;;;;;;;;;5072278;28;20284;-79
2021/08/27 13:26:42;;;;;;;3.72;2.13;;;;;;;;;;5051281;28;20636;-78
2021/08/27 13:29:09;;;;;;;3.17;2.10;;;;;;;;;;5050780;28;20252;-79
2021/08/27 13:31:36;;;;;;;2.38;2.17;;;;;;;;;;5051108;28;20659;-79
2021/08/27 13:34:04;;;;;;;2.10;2.00;;;;;;;;;;5050747;28;20207;-79
2021/08/27 13:36:31;;;;;;;2.42;2.03;;;;;;;;;;5050966;28;20659;-79
2021/08/27 13:38:58;;;;;;;4.45;2.20;;;;;;;;;;5052125;28;20242;-79
2021/08/27 13:41:25;;;;;;;2.22;2.10;;;;;;;;;;5050682;28;20207;-78
2021/08/27 13:43:51;;;;;;;2.85;2.53;;;;;;;;;;5052046;28;20203;-78
2021/08/27 13:46:18;;;;;;;2.17;2.08;;;;;;;;;;5050754;28;20227;-78
2021/08/27 13:48:45;;;;;;;2.42;2.22;;;;;;;;;;5050594;28;20225;-78
2021/08/27 13:51:13;;;;;;;3.13;2.10;;;;;;;;;;5050728;28;20227;-78
2021/08/27 13:53:40;;;;;;;2.40;2.20;;;;;;;;;;5050425;28;20250;-78
2021/08/27 13:56:07;;;;;;;2.40;2.20;;;;;;;;;;5050477;28;20231;-78
2021/08/27 13:58:33;;;;;;;2.10;2.00;;;;;;;;;;5052052;28;20241;-78
2021/08/27 14:01:00;;;;;;;2.22;2.03;;;;;;;;;;5051962;28;20207;-78
2021/08/27 14:03:30;;;;;;;2.20;2.10;;;;;;;;;;5050490;28;20199;-78
2021/08/27 14:05:57;;;;;;;2.60;2.28;;;;;;;;;;5050600;28;20559;-78
2021/08/27 14:08:25;;;;;;;2.30;2.10;;;;;;;;;;5050700;28;20206;-78
2021/08/27 14:10:53;;;;;;;2.10;2.00;;;;;;;;;;5032439;28;20203;-78
2021/08/27 14:13:19;;;;;;;5.22;2.05;;;;;;;;;;5052002;28;20741;-79
2021/08/27 14:15:46;;;;;;;3.25;2.28;;;;;;;;;;5051377;28;20737;-78
2021/08/27 14:18:13;;;;;;;2.58;2.28;;;;;;;;;;5049923;28;20264;-78
2021/08/27 14:20:45;;;;;;;5.30;2.20;;;;;;;;;;5052010;28;20643;-78
2021/08/27 14:23:11;;;;;;;2.42;2.22;;;;;;;;;;5050380;28;20250;-78
2021/08/27 14:25:39;;;;;;;4.38;2.17;;;;;;;;;;5050367;28;20230;-79
2021/08/27 14:28:08;;;;;;;2.35;2.20;;;;;;;;;;5049929;28;20235;-79
2021/08/27 14:30:34;;;;;;;1.98;1.88;;;;;;;;;;5051944;28;20218;-78
2021/08/27 14:33:04;;;;;;;4.55;2.00;;;;;;;;;;5050034;28;20304;-77
2021/08/27 14:35:31;;;;;;;2.30;1.80;;;;;;;;;;5051830;28;20242;-78
2021/08/27 14:37:58;;;;;;;1.80;1.70;;;;;;;;;;5051908;28;20239;-79
2021/08/27 14:40:24;;;;;;;2.20;2.10;;;;;;;;;;5051884;28;20718;-79
2021/08/27 14:42:52;;;;;;;2.83;2.15;;;;;;;;;;5050147;28;20206;-79
2021/08/27 14:45:19;;;;;;;2.58;1.88;;;;;;;;;;5051831;28;20250;-79
2021/08/27 14:47:46;;;;;;;2.03;1.92;;;;;;;;;;5050235;28;20207;-78
2021/08/27 14:50:12;;;;;;;2.00;1.90;;;;;;;;;;5051963;28;20243;-79
2021/08/27 14:52:39;;;;;;;2.60;1.98;;;;;;;;;;5051625;28;20625;-79